Time;durP1;ratioP1;P1;durP2;ratioP2;P2;SDS_P1;SDS_P2;PMS_P1;PMS_P2;Temp;Humidity;BMP_temperature;BMP_pressure;BME280_temperature;BME280_humidity;BME280_pressure;Samples;Min_cycle;Max_cycle;Signal;HPM_P1;HPM_P2
2023/10/12 00:01:59;;;;;;;1999.90;999.90;;;20.90;56.20;;;;;;5094621;28;20230;-70
2023/10/12 00:10:37;;;;;;;1999.90;999.90;;;20.80;57.10;;;;;;5094348;28;20402;-70
2023/10/12 00:12:59;;;;;;;1999.90;999.90;;;20.80;57.20;;;;;;5093807;28;21093;-70
2023/10/12 00:15:25;;;;;;;1999.90;999.90;;;20.80;57.30;;;;;;5094456;28;20459;-70
2023/10/12 00:17:59;;;;;;;1999.90;999.90;;;20.70;58.30;;;;;;5094156;28;20821;-70
2023/10/12 00:23:09;;;;;;;1999.90;999.90;;;20.70;58.80;;;;;;5094097;28;20457;-70
2023/10/12 00:25:54;;;;;;;1999.90;999.90;;;20.60;59.60;;;;;;5094211;28;20782;-70
2023/10/12 00:28:21;;;;;;;1999.90;999.90;;;20.60;60.70;;;;;;5094001;28;20442;-70
2023/10/12 00:30:54;;;;;;;1999.90;999.90;;;20.60;61.80;;;;;;5093966;28;20905;-70
2023/10/12 00:33:21;;;;;;;1999.90;999.90;;;20.50;63.10;;;;;;5094158;28;20471;-70
2023/10/12 00:35:52;;;;;;;1999.90;999.90;;;20.50;62.80;;;;;;5093910;28;20439;-70
2023/10/12 00:38:18;;;;;;;1999.90;999.90;;;20.50;64.00;;;;;;5093752;28;20413;-70
2023/10/12 00:40:58;;;;;;;1999.90;999.90;;;20.50;63.70;;;;;;5093948;28;20811;-70
2023/10/12 00:43:31;;;;;;;1999.90;999.90;;;20.50;64.60;;;;;;5094025;28;20922;-70
2023/10/12 00:45:59;;;;;;;1999.90;999.90;;;20.40;64.80;;;;;;5093750;28;20405;-70
2023/10/12 00:48:29;;;;;;;1999.90;999.90;;;20.40;64.80;;;;;;5093545;28;20488;-70
2023/10/12 00:50:56;;;;;;;1999.90;999.90;;;20.40;66.50;;;;;;5093600;28;21023;-70
2023/10/12 00:53:31;;;;;;;1999.90;999.90;;;20.40;65.60;;;;;;5093515;28;20969;-70
2023/10/12 00:55:57;;;;;;;1999.90;999.90;;;20.40;65.70;;;;;;5093545;28;20421;-70
2023/10/12 00:58:22;;;;;;;1999.90;999.90;;;20.30;65.70;;;;;;5093409;28;20409;-70
2023/10/12 01:00:51;;;;;;;1999.90;999.90;;;20.30;66.70;;;;;;5093509;28;20957;-70
2023/10/12 01:08:46;;;;;;;1999.90;999.90;;;20.30;67.40;;;;;;5093449;28;20437;-70
2023/10/12 01:11:20;;;;;;;1999.90;999.90;;;20.30;67.60;;;;;;5093107;28;20808;-72
2023/10/12 01:13:48;;;;;;;1999.90;999.90;;;20.20;67.90;;;;;;5093309;28;20502;-72
2023/10/12 01:16:22;;;;;;;1999.90;999.90;;;20.20;69.10;;;;;;5093199;28;20770;-70
2023/10/12 01:19:05;;;;;;;1999.90;999.90;;;20.20;66.10;;;;;;5092921;28;20414;-70
2023/10/12 01:21:35;;;;;;;1999.90;999.90;;;20.10;66.10;;;;;;5093156;28;20489;-70
2023/10/12 01:24:11;;;;;;;1999.90;999.90;;;20.10;67.90;;;;;;5093062;28;20459;-70
2023/10/12 01:26:48;;;;;;;1999.90;999.90;;;20.10;68.60;;;;;;5093030;28;20456;-70
2023/10/12 01:29:21;;;;;;;1999.90;999.90;;;20.00;70.80;;;;;;5092828;28;20485;-70
2023/10/12 01:34:36;;;;;;;1999.90;999.90;;;19.80;74.60;;;;;;5093007;28;21015;-70
2023/10/12 01:37:03;;;;;;;1999.90;999.90;;;19.70;74.20;;;;;;5092774;28;20403;-69
2023/10/12 01:39:28;;;;;;;1999.90;999.90;;;19.70;73.20;;;;;;5092522;28;20400;-70
2023/10/12 01:41:57;;;;;;;1999.90;999.90;;;19.70;69.30;;;;;;5092580;28;20424;-69
2023/10/12 01:44:24;;;;;;;1999.90;999.90;;;19.70;67.90;;;;;;5092666;28;20167;-70
2023/10/12 01:46:49;;;;;;;1999.90;999.90;;;19.70;66.50;;;;;;5092610;28;20421;-70
2023/10/12 01:49:17;;;;;;;1999.90;999.90;;;19.70;66.40;;;;;;5092495;28;20408;-70
2023/10/12 01:51:46;;;;;;;1999.90;999.90;;;19.70;66.40;;;;;;5092319;28;20202;-70
2023/10/12 01:54:13;;;;;;;1999.90;999.90;;;19.70;66.10;;;;;;5092490;28;20407;-70
2023/10/12 01:56:39;;;;;;;1999.90;999.90;;;19.70;65.90;;;;;;5092620;28;20484;-70
2023/10/12 01:59:07;;;;;;;1999.90;999.90;;;19.60;69.90;;;;;;5092434;28;20408;-72
2023/10/12 02:01:41;;;;;;;1999.90;999.90;;;19.40;71.80;;;;;;5092371;28;20432;-70
2023/10/12 02:04:07;;;;;;;1999.90;999.90;;;19.40;74.10;;;;;;5092373;28;20481;-70
2023/10/12 02:06:32;;;;;;;1999.90;999.90;;;19.30;76.00;;;;;;5092172;28;20787;-70
2023/10/12 02:09:21;;;;;;;1999.90;999.90;;;19.30;78.70;;;;;;5092109;28;20167;-71
2023/10/12 02:11:53;;;;;;;1999.90;999.90;;;19.30;77.80;;;;;;5091976;28;20608;-70
2023/10/12 02:14:31;;;;;;;1999.90;999.90;;;19.30;80.30;;;;;;5092306;28;20403;-70
2023/10/12 02:17:02;;;;;;;1999.90;999.90;;;19.20;86.80;;;;;;5091894;28;20399;-70
2023/10/12 02:19:42;;;;;;;1999.90;999.90;;;19.10;90.80;;;;;;5091758;28;20486;-70
2023/10/12 02:22:18;;;;;;;1999.90;999.90;;;18.90;91.90;;;;;;5092064;28;20414;-71
2023/10/12 02:24:50;;;;;;;1999.90;999.90;;;18.90;95.30;;;;;;5092224;28;20946;-70
2023/10/12 02:27:16;;;;;;;1999.90;999.90;;;18.80;98.10;;;;;;5091958;28;20414;-71
2023/10/12 02:29:48;;;;;;;1999.90;999.90;;;18.70;99.90;;;;;;5091832;28;20407;-70
2023/10/12 02:32:20;;;;;;;1999.90;999.90;;;18.70;99.90;;;;;;5092121;28;20922;-71
2023/10/12 02:34:46;;;;;;;1999.90;999.90;;;18.70;99.90;;;;;;5092085;28;20776;-71
2023/10/12 02:39:40;;;;;;;1999.90;999.90;;;18.40;99.90;;;;;;5091831;28;21162;-70
2023/10/12 02:47:26;;;;;;;1999.90;999.90;;;18.30;99.90;;;;;;5091929;28;20492;-70
2023/10/12 02:50:22;;;;;;;1999.90;999.90;;;18.30;99.90;;;;;;5091794;28;20541;-70
2023/10/12 02:52:43;;;;;;;1999.90;999.90;;;18.40;99.90;;;;;;5091341;28;20423;-70
2023/10/12 02:57:56;;;;;;;1999.90;999.90;;;18.40;99.90;;;;;;5091650;28;20406;-70
2023/10/12 03:00:31;;;;;;;1999.90;999.90;;;18.40;99.90;;;;;;5091634;28;20535;-70
2023/10/12 03:03:05;;;;;;;1999.90;999.90;;;18.30;99.90;;;;;;5091868;28;20532;-71
2023/10/12 03:05:33;;;;;;;1999.90;999.90;;;18.30;99.90;;;;;;5091707;28;20406;-71
2023/10/12 03:08:06;;;;;;;1999.90;999.90;;;18.30;99.90;;;;;;5091436;28;20949;-71
2023/10/12 03:10:32;;;;;;;1999.90;999.90;;;18.30;99.90;;;;;;5091521;28;20544;-70
2023/10/12 03:13:04;;;;;;;1999.90;999.90;;;18.30;99.90;;;;;;5091843;28;20495;-71
2023/10/12 03:15:56;;;;;;;1999.90;999.90;;;18.30;99.90;;;;;;5091538;28;20905;-70
2023/10/12 03:18:22;;;;;;;1999.90;999.90;;;18.30;99.90;;;;;;5091259;28;20812;-71
2023/10/12 03:21:02;;;;;;;1999.90;999.90;;;18.30;99.90;;;;;;5091462;28;20506;-71
2023/10/12 03:23:29;;;;;;;1999.90;999.90;;;18.20;99.90;;;;;;5091363;28;20867;-70
2023/10/12 03:25:54;;;;;;;1999.90;999.90;;;18.10;99.90;;;;;;5091716;28;20409;-71
2023/10/12 03:28:30;;;;;;;1999.90;999.90;;;18.10;99.90;;;;;;5091398;28;20391;-71
2023/10/12 03:31:12;;;;;;;1999.90;999.90;;;18.00;99.90;;;;;;5095314;28;20198;-71
2023/10/12 03:33:39;;;;;;;1999.90;999.90;;;18.00;99.90;;;;;;5095054;28;20959;-69
2023/10/12 03:36:22;;;;;;;1999.90;999.90;;;18.00;99.90;;;;;;5095108;28;20405;-72
2023/10/12 03:44:33;;;;;;;1999.90;999.90;;;18.00;99.90;;;;;;5094980;28;20977;-71
2023/10/12 03:47:15;;;;;;;1999.90;999.90;;;18.10;99.90;;;;;;5093667;28;20410;-71
2023/10/12 03:52:20;;;;;;;1999.90;999.90;;;18.20;99.90;;;;;;5094829;28;20789;-71
2023/10/12 04:02:39;;;;;;;1999.90;999.90;;;18.30;99.90;;;;;;5094448;28;20488;-70
2023/10/12 04:05:20;;;;;;;1999.90;999.90;;;18.30;99.90;;;;;;5094609;28;20431;-71
2023/10/12 04:19:03;;;;;;;1999.90;999.90;;;18.40;99.90;;;;;;5094353;28;20398;-69
2023/10/12 04:21:35;;;;;;;1999.90;999.90;;;18.30;99.90;;;;;;5094144;28;21011;-69
2023/10/12 04:27:08;;;;;;;1999.90;999.90;;;18.30;99.90;;;;;;5094369;28;20410;-71
2023/10/12 04:29:31;;;;;;;1999.90;999.90;;;18.30;99.90;;;;;;5093822;28;20523;-70
2023/10/12 04:32:09;;;;;;;1999.90;999.90;;;18.30;99.90;;;;;;5093881;28;20416;-70
2023/10/12 04:34:46;;;;;;;1999.90;999.90;;;18.30;99.90;;;;;;5094038;28;20858;-71
2023/10/12 04:37:12;;;;;;;1999.90;999.90;;;18.30;99.90;;;;;;5094161;28;20909;-71
2023/10/12 04:39:38;;;;;;;1999.90;999.90;;;18.30;99.90;;;;;;5093727;28;20406;-71
2023/10/12 04:42:11;;;;;;;1999.90;999.90;;;18.20;99.90;;;;;;5093147;28;20425;-71
2023/10/12 04:44:43;;;;;;;1999.90;999.90;;;18.20;99.90;;;;;;5093787;28;20893;-70
2023/10/12 04:47:19;;;;;;;1999.90;999.90;;;18.20;99.90;;;;;;5093701;28;20408;-69
2023/10/12 04:57:28;;;;;;;1999.90;999.90;;;18.10;99.90;;;;;;5093608;28;20217;-71
2023/10/12 05:05:56;;;;;;;1999.90;999.90;;;18.10;99.90;;;;;;5050749;28;20407;-71
2023/10/12 05:08:21;;;;;;;1999.90;999.90;;;18.10;99.90;;;;;;5088864;28;20469;-70
2023/10/12 05:10:47;;;;;;;1999.90;999.90;;;18.10;99.90;;;;;;5092907;28;20448;-69
2023/10/12 05:13:19;;;;;;;1999.90;999.90;;;18.10;99.90;;;;;;5093224;28;20205;-70
2023/10/12 05:15:54;;;;;;;1999.90;999.90;;;18.10;99.90;;;;;;5093172;28;20490;-70
2023/10/12 05:18:22;;;;;;;1999.90;999.90;;;18.10;99.90;;;;;;5092965;28;20382;-71
2023/10/12 05:20:47;;;;;;;1999.90;999.90;;;18.10;99.90;;;;;;5092992;28;20465;-70
2023/10/12 05:23:13;;;;;;;1999.90;999.90;;;18.10;99.90;;;;;;5093054;28;20486;-71
2023/10/12 05:28:31;;;;;;;1999.90;999.90;;;18.10;99.90;;;;;;5092931;28;20166;-70
2023/10/12 05:35:59;;;;;;;1999.90;999.90;;;18.10;99.90;;;;;;5092924;28;20473;-71
2023/10/12 05:38:34;;;;;;;1999.90;999.90;;;18.20;99.90;;;;;;5092713;28;20226;-71
2023/10/12 05:41:01;;;;;;;1999.90;999.90;;;18.10;99.90;;;;;;5092621;28;20426;-70
2023/10/12 05:43:30;;;;;;;1999.90;999.90;;;18.10;99.90;;;;;;5092567;28;21033;-71
2023/10/12 05:46:01;;;;;;;1999.90;999.90;;;18.10;99.90;;;;;;5092589;28;20395;-70
2023/10/12 05:48:27;;;;;;;1999.90;999.90;;;18.00;99.90;;;;;;5092379;28;20410;-70
2023/10/12 05:50:53;;;;;;;1999.90;999.90;;;17.90;99.90;;;;;;5092474;28;20417;-70
2023/10/12 05:53:20;;;;;;;1999.90;999.90;;;17.90;99.90;;;;;;5091643;28;20397;-70
2023/10/12 05:55:47;;;;;;;1999.90;999.90;;;17.90;99.90;;;;;;5092379;28;20419;-71
2023/10/12 05:58:14;;;;;;;1999.90;999.90;;;17.90;99.90;;;;;;5092459;28;20777;-71
2023/10/12 06:00:46;;;;;;;1999.90;999.90;;;17.90;99.90;;;;;;5092438;28;20554;-71
2023/10/12 06:03:20;;;;;;;1999.90;999.90;;;17.90;99.90;;;;;;5092486;28;20838;-71
2023/10/12 06:05:47;;;;;;;1999.90;999.90;;;17.90;99.90;;;;;;5092379;28;20433;-71
2023/10/12 06:08:17;;;;;;;1999.90;999.90;;;17.90;99.90;;;;;;5092107;28;20932;-71
2023/10/12 06:10:42;;;;;;;1999.90;999.90;;;17.80;99.90;;;;;;5092086;28;21075;-71
2023/10/12 06:13:13;;;;;;;1999.90;999.90;;;17.70;99.90;;;;;;5092251;28;20404;-71
2023/10/12 06:15:42;;;;;;;1999.90;999.90;;;17.70;99.90;;;;;;5092094;28;20177;-71
2023/10/12 06:18:13;;;;;;;1999.90;999.90;;;17.60;99.90;;;;;;5091962;28;20413;-71
2023/10/12 06:20:42;;;;;;;1999.90;999.90;;;17.60;99.90;;;;;;5091952;28;20485;-71
2023/10/12 06:23:13;;;;;;;1999.90;999.90;;;17.60;99.90;;;;;;5092015;28;20544;-71
2023/10/12 06:25:39;;;;;;;1999.90;999.90;;;17.50;99.90;;;;;;5092311;28;20802;-70
2023/10/12 06:28:14;;;;;;;1999.90;999.90;;;17.50;99.90;;;;;;5091940;28;20403;-71
2023/10/12 06:30:45;;;;;;;1999.90;999.90;;;17.50;99.90;;;;;;5091904;28;20516;-71
2023/10/12 06:33:14;;;;;;;1999.90;999.90;;;17.50;99.90;;;;;;5091966;28;20505;-71
2023/10/12 06:35:58;;;;;;;1999.90;999.90;;;17.40;99.90;;;;;;5092193;28;20424;-71
2023/10/12 06:47:02;;;;;;;1999.90;999.90;;;17.40;99.90;;;;;;5068522;28;20411;-71
2023/10/12 06:49:32;;;;;;;1999.90;999.90;;;17.40;99.90;;;;;;5091668;28;20429;-71
2023/10/12 06:52:01;;;;;;;1999.90;999.90;;;17.40;99.90;;;;;;5091719;28;20423;-71
2023/10/12 06:54:49;;;;;;;1999.90;999.90;;;17.40;99.90;;;;;;5091862;28;20515;-71
2023/10/12 06:59:52;;;;;;;1999.90;999.90;;;17.40;99.90;;;;;;5091466;28;20449;-70
2023/10/12 07:02:22;;;;;;;1999.90;999.90;;;17.50;99.90;;;;;;5091519;28;20433;-71
2023/10/12 07:04:53;;;;;;;1999.90;999.90;;;17.50;99.90;;;;;;5094213;28;20405;-70
2023/10/12 07:07:27;;;;;;;1999.90;999.90;;;17.50;99.90;;;;;;5095846;28;20401;-70
2023/10/12 07:09:59;;;;;;;1999.90;999.90;;;17.50;99.90;;;;;;5095615;28;20899;-70
2023/10/12 07:12:25;;;;;;;1999.90;999.90;;;17.50;99.90;;;;;;5095616;28;20440;-71
2023/10/12 07:14:54;;;;;;;1999.90;999.90;;;17.50;99.90;;;;;;5095549;28;20920;-70
2023/10/12 07:17:27;;;;;;;1999.90;999.90;;;17.60;99.90;;;;;;5096670;28;20259;-71
2023/10/12 07:19:56;;;;;;;1999.90;999.90;;;17.60;99.90;;;;;;5107407;28;20482;-71
2023/10/12 07:22:21;;;;;;;1999.90;999.90;;;17.60;99.90;;;;;;5115641;28;20419;-71
2023/10/12 07:24:56;;;;;;;1999.90;999.90;;;17.60;99.90;;;;;;5115766;28;20403;-70
2023/10/12 07:27:23;;;;;;;1999.90;999.90;;;17.60;99.90;;;;;;5115650;28;20174;-70
2023/10/12 07:30:14;;;;;;;1999.90;999.90;;;17.60;99.90;;;;;;5115527;28;20780;-71
2023/10/12 07:32:54;;;;;;;1999.90;999.90;;;17.60;99.90;;;;;;5103853;28;20412;-70
2023/10/12 07:35:31;;;;;;;1999.90;999.90;;;17.60;99.90;;;;;;5115541;28;20409;-71
2023/10/12 07:37:57;;;;;;;1999.90;999.90;;;17.50;99.90;;;;;;5115288;28;20490;-70
2023/10/12 07:40:23;;;;;;;1999.90;999.90;;;17.50;99.90;;;;;;5115427;28;20454;-70
2023/10/12 07:42:49;;;;;;;1999.90;999.90;;;17.60;99.90;;;;;;5115436;28;20488;-71
2023/10/12 07:45:16;;;;;;;1999.90;999.90;;;17.60;99.90;;;;;;5115537;28;20194;-70
2023/10/12 07:47:42;;;;;;;1999.90;999.90;;;17.60;99.90;;;;;;5115201;28;20468;-70
2023/10/12 07:50:25;;;;;;;1999.90;999.90;;;17.60;99.90;;;;;;5115250;28;20817;-70
2023/10/12 07:53:06;;;;;;;1999.90;999.90;;;17.70;99.90;;;;;;5099149;28;20446;-70
2023/10/12 07:55:31;;;;;;;1999.90;999.90;;;17.60;99.90;;;;;;5074686;28;20413;-70
2023/10/12 07:57:57;;;;;;;1999.90;999.90;;;17.90;99.90;;;;;;5074337;28;20397;-70
2023/10/12 08:00:34;;;;;;;1999.90;999.90;;;17.70;99.90;;;;;;5074451;28;20213;-70
2023/10/12 08:03:17;;;;;;;1999.90;999.90;;;17.80;99.90;;;;;;5074611;28;20293;-70
2023/10/12 08:05:43;;;;;;;1999.90;999.90;;;17.30;99.90;;;;;;5074551;28;20400;-70
2023/10/12 08:08:17;;;;;;;1999.90;999.90;;;17.70;99.90;;;;;;5087564;28;20438;-70
2023/10/12 08:13:25;;;;;;;1999.90;999.90;;;17.70;99.90;;;;;;5114892;28;20400;-70
2023/10/12 08:21:31;;;;;;;1999.90;999.90;;;17.80;99.90;;;;;;5092178;28;20441;-70
2023/10/12 08:24:09;;;;;;;1999.90;999.90;;;17.80;99.90;;;;;;5114785;28;20464;-70
2023/10/12 08:30:11;;;;;;;1999.90;999.90;;;17.70;99.90;;;;;;5114368;28;20425;-70
2023/10/12 08:32:55;;;;;;;1999.90;999.90;;;17.80;99.90;;;;;;5101758;28;20412;-70
2023/10/12 08:37:27;;;;;;;1999.90;999.90;;;17.90;99.90;;;;;;5088570;28;20426;-70
2023/10/12 08:43:34;;;;;;;1999.90;999.90;;;18.00;99.90;;;;;;5092177;28;20187;-70
2023/10/12 08:45:15;;;;;;;1999.90;999.90;;;18.00;99.90;;;;;;5099701;28;20956;-70
2023/10/12 08:47:48;;;;;;;1999.90;999.90;;;18.10;99.90;;;;;;5109835;28;20408;-69
2023/10/12 08:52:51;;;;;;;1999.90;999.90;;;18.10;99.90;;;;;;5109403;28;21017;-71
2023/10/12 08:55:24;;;;;;;1999.90;999.90;;;18.20;99.90;;;;;;5109167;28;20938;-72
2023/10/12 08:58:01;;;;;;;1999.90;999.90;;;18.30;99.90;;;;;;5109135;28;20800;-71
2023/10/12 09:03:05;;;;;;;1999.90;999.90;;;18.30;99.90;;;;;;5109305;28;20458;-70
2023/10/12 09:05:33;;;;;;;1999.90;999.90;;;18.30;99.90;;;;;;5110042;28;21071;-70
2023/10/12 09:11:02;;;;;;;1999.90;999.90;;;18.40;99.90;;;;;;5106769;28;20438;-71
2023/10/12 09:13:35;;;;;;;1999.90;999.90;;;18.50;99.90;;;;;;5097338;28;20764;-70
2023/10/12 09:16:07;;;;;;;1999.90;999.90;;;18.60;99.90;;;;;;5089377;28;20421;-71
2023/10/12 09:18:43;;;;;;;1999.90;999.90;;;18.70;99.90;;;;;;5109739;28;20425;-72
2023/10/12 09:23:58;;;;;;;1999.90;999.90;;;18.90;99.90;;;;;;5110168;28;20448;-72
2023/10/12 09:26:34;;;;;;;1999.90;999.90;;;19.00;99.90;;;;;;5109838;28;20421;-71
2023/10/12 09:36:55;;;;;;;1999.90;999.90;;;19.60;99.90;;;;;;5112567;28;20419;-70
2023/10/12 09:39:27;;;;;;;1999.90;999.90;;;19.60;99.90;;;;;;5112673;28;20414;-70
2023/10/12 09:41:59;;;;;;;1999.90;999.90;;;19.70;99.90;;;;;;5112821;28;20794;-70
2023/10/12 09:44:26;;;;;;;1999.90;999.90;;;19.90;99.90;;;;;;5111313;28;20888;-68
2023/10/12 09:46:56;;;;;;;1999.90;999.90;;;20.00;99.90;;;;;;5090199;28;20420;-69
2023/10/12 09:49:29;;;;;;;1999.90;999.90;;;20.20;99.90;;;;;;5092206;28;20892;-69
2023/10/12 09:51:59;;;;;;;1999.90;999.90;;;20.30;99.90;;;;;;5092075;28;20431;-69
2023/10/12 09:54:45;;;;;;;1999.90;999.90;;;20.30;99.90;;;;;;5090466;28;20882;-68
2023/10/12 09:57:26;;;;;;;1999.90;999.90;;;20.50;99.90;;;;;;5087692;28;20447;-70
2023/10/12 10:00:17;;;;;;;1999.90;999.90;;;20.50;99.90;;;;;;5087636;28;20492;-70
2023/10/12 10:02:44;;;;;;;1999.90;999.90;;;20.60;99.90;;;;;;5088103;28;20465;-69
2023/10/12 10:05:27;;;;;;;1999.90;999.90;;;20.70;99.90;;;;;;5088067;28;21083;-70
2023/10/12 10:08:06;;;;;;;1999.90;999.90;;;20.80;99.90;;;;;;5087873;28;20403;-69
2023/10/12 10:10:36;;;;;;;1999.90;999.90;;;20.80;99.90;;;;;;5088163;28;21052;-71
2023/10/12 10:13:20;;;;;;;1999.90;999.90;;;20.80;99.90;;;;;;5088220;28;20429;-71
2023/10/12 10:15:57;;;;;;;1999.90;999.90;;;20.70;99.90;;;;;;5087966;28;20846;-69
2023/10/12 10:18:28;;;;;;;1999.90;999.90;;;20.70;99.90;;;;;;5087864;28;20844;-71
2023/10/12 10:21:01;;;;;;;1999.90;999.90;;;20.90;99.90;;;;;;5088457;28;20856;-71
2023/10/12 10:23:29;;;;;;;1999.90;999.90;;;20.90;99.90;;;;;;5087549;28;20464;-71
2023/10/12 10:26:16;;;;;;;1999.90;999.90;;;21.00;99.90;;;;;;5087548;28;20790;-71
2023/10/12 10:28:58;;;;;;;1999.90;999.90;;;21.10;99.90;;;;;;5087820;28;20968;-71
2023/10/12 10:31:28;;;;;;;1999.90;999.90;;;21.30;99.90;;;;;;5088030;28;20476;-71
2023/10/12 10:33:57;;;;;;;1999.90;999.90;;;21.40;99.90;;;;;;5087731;28;20410;-71
2023/10/12 10:36:26;;;;;;;1999.90;999.90;;;21.40;99.90;;;;;;5087237;28;20458;-71
2023/10/12 10:44:21;;;;;;;1999.90;999.90;;;21.20;99.90;;;;;;5067330;28;20245;-71
2023/10/12 10:46:57;;;;;;;1999.90;999.90;;;21.10;99.90;;;;;;5087401;28;20510;-71
2023/10/12 10:49:30;;;;;;;1999.90;999.90;;;21.00;99.90;;;;;;5087138;28;20423;-70
2023/10/12 10:52:03;;;;;;;1999.90;999.90;;;21.10;99.90;;;;;;5087208;28;20444;-72
2023/10/12 10:54:30;;;;;;;1999.90;999.90;;;21.00;99.90;;;;;;5088020;28;20417;-72
2023/10/12 10:56:59;;;;;;;1999.90;999.90;;;21.10;99.90;;;;;;5087822;28;20618;-71
2023/10/12 10:59:25;;;;;;;1999.90;999.90;;;21.20;99.90;;;;;;5086832;28;20416;-71
2023/10/12 11:01:52;;;;;;;1999.90;999.90;;;21.30;99.90;;;;;;5087241;28;20519;-72
2023/10/12 11:07:11;;;;;;;1999.90;999.90;;;21.40;99.90;;;;;;5087664;28;20429;-71
2023/10/12 11:12:23;;;;;;;1999.90;999.90;;;21.40;99.90;;;;;;5086896;28;20481;-72
2023/10/12 11:14:58;;;;;;;1999.90;999.90;;;21.30;99.90;;;;;;5087536;28;20413;-72
2023/10/12 11:17:26;;;;;;;1999.90;999.90;;;21.30;99.90;;;;;;5087557;28;20423;-71
2023/10/12 11:19:52;;;;;;;1999.90;999.90;;;21.30;99.90;;;;;;5086699;28;20430;-71
2023/10/12 11:22:19;;;;;;;1999.90;999.90;;;21.30;99.90;;;;;;5086503;28;20461;-71
2023/10/12 11:24:45;;;;;;;1999.90;999.90;;;21.40;99.90;;;;;;5087459;28;20176;-71
2023/10/12 11:27:27;;;;;;;1999.90;999.90;;;21.50;99.90;;;;;;5086708;28;20410;-71
2023/10/12 11:29:54;;;;;;;1999.90;999.90;;;21.50;99.90;;;;;;5086885;28;20989;-71
2023/10/12 11:32:20;;;;;;;1999.90;999.90;;;21.50;99.90;;;;;;5086527;28;20442;-71
2023/10/12 11:34:59;;;;;;;1999.90;999.90;;;21.60;99.90;;;;;;5087083;28;20422;-72
2023/10/12 11:37:29;;;;;;;1999.90;999.90;;;21.60;99.90;;;;;;5086584;28;20442;-72
2023/10/12 11:39:55;;;;;;;1999.90;999.90;;;21.60;99.90;;;;;;5087302;28;20456;-71
2023/10/12 11:42:21;;;;;;;1999.90;999.90;;;21.60;99.90;;;;;;5086484;28;20409;-71
2023/10/12 11:44:48;;;;;;;1999.90;999.90;;;21.60;99.90;;;;;;5086431;28;20432;-71
2023/10/12 11:47:25;;;;;;;1999.90;999.90;;;21.60;99.90;;;;;;5087240;28;20661;-71
2023/10/12 11:49:55;;;;;;;1999.90;999.90;;;21.80;99.90;;;;;;5087163;28;20389;-72
2023/10/12 11:52:34;;;;;;;1999.90;999.90;;;21.80;99.90;;;;;;5089599;28;20432;-71
2023/10/12 11:55:20;;;;;;;1999.90;999.90;;;22.10;99.90;;;;;;5090718;28;20507;-71
2023/10/12 11:57:54;;;;;;;1999.90;999.90;;;22.70;99.90;;;;;;5090333;28;20497;-72
2023/10/12 12:02:57;;;;;;;1999.90;999.90;;;22.80;99.90;;;;;;5090597;28;21189;-71
2023/10/12 12:05:23;;;;;;;1999.90;999.90;;;22.60;99.90;;;;;;5089830;28;20507;-71
2023/10/12 12:07:51;;;;;;;1999.90;999.90;;;22.50;99.90;;;;;;5089624;28;20473;-71
2023/10/12 12:10:38;;;;;;;1999.90;999.90;;;22.00;99.90;;;;;;5090305;28;20439;-71
2023/10/12 12:13:08;;;;;;;1999.90;999.90;;;21.60;99.90;;;;;;5089568;28;20423;-71
2023/10/12 12:15:37;;;;;;;1999.90;999.90;;;21.30;99.90;;;;;;5090215;28;20423;-72
2023/10/12 12:18:10;;;;;;;1999.90;999.90;;;21.10;99.90;;;;;;5090344;28;21184;-71
2023/10/12 12:20:39;;;;;;;1999.90;999.90;;;20.90;99.90;;;;;;5089677;28;20869;-71
2023/10/12 12:23:05;;;;;;;1999.90;999.90;;;20.70;99.90;;;;;;5084427;28;20906;-71
2023/10/12 12:25:32;;;;;;;1999.90;999.90;;;20.60;99.90;;;;;;5107762;28;20491;-72
2023/10/12 12:28:04;;;;;;;1999.90;999.90;;;20.50;99.90;;;;;;5092343;28;20418;-72
2023/10/12 12:30:32;;;;;;;1999.90;999.90;;;20.40;99.90;;;;;;5086458;28;20426;-70
2023/10/12 12:33:00;;;;;;;1999.90;999.90;;;20.30;99.90;;;;;;5092561;28;20383;-72
2023/10/12 12:35:30;;;;;;;1999.90;999.90;;;20.20;99.90;;;;;;5080100;28;20425;-70
2023/10/12 12:38:05;;;;;;;1999.90;999.90;;;20.00;99.90;;;;;;5110358;28;20448;-71
2023/10/12 12:40:38;;;;;;;1999.90;999.90;;;20.00;99.90;;;;;;5098944;28;20421;-72
2023/10/12 12:43:07;;;;;;;1999.90;999.90;;;19.90;99.90;;;;;;5089208;28;20524;-72
2023/10/12 12:45:35;;;;;;;1999.90;999.90;;;19.80;99.90;;;;;;5085892;28;20443;-71
2023/10/12 12:48:01;;;;;;;1999.90;999.90;;;19.70;99.90;;;;;;5078716;28;21005;-73
2023/10/12 12:50:28;;;;;;;1999.90;999.90;;;19.70;99.90;;;;;;5077270;28;20409;-72
2023/10/12 12:52:54;;;;;;;1999.90;999.90;;;19.70;99.90;;;;;;5080816;28;20518;-71
2023/10/12 12:55:25;;;;;;;1999.90;999.90;;;19.70;99.90;;;;;;5097078;28;20449;-72
2023/10/12 12:57:50;;;;;;;1999.90;999.90;;;19.70;99.90;;;;;;5109780;28;20441;-72
2023/10/12 13:00:22;;;;;;;1999.90;999.90;;;19.80;99.90;;;;;;5109160;28;20405;-72
2023/10/12 13:02:48;;;;;;;1999.90;999.90;;;19.80;99.90;;;;;;5108670;28;20285;-73
2023/10/12 13:05:14;;;;;;;1999.90;999.90;;;19.70;99.90;;;;;;5109854;28;20939;-73
2023/10/12 13:07:46;;;;;;;1999.90;999.90;;;19.70;99.90;;;;;;5109084;28;20397;-72
2023/10/12 13:10:12;;;;;;;1999.90;999.90;;;19.50;99.90;;;;;;5103222;28;20979;-72
2023/10/12 13:12:40;;;;;;;1999.90;999.90;;;19.40;99.90;;;;;;5088902;28;20434;-70
2023/10/12 13:15:09;;;;;;;1999.90;999.90;;;19.20;99.90;;;;;;5089144;28;20426;-70
2023/10/12 13:17:38;;;;;;;1999.90;999.90;;;19.10;99.90;;;;;;5077300;28;20500;-70
2023/10/12 13:20:18;;;;;;;1999.90;999.90;;;18.90;99.90;;;;;;5092646;28;20493;-69
2023/10/12 13:22:44;;;;;;;1999.90;999.90;;;18.90;99.90;;;;;;5093343;28;20460;-70
2023/10/12 13:25:11;;;;;;;1999.90;999.90;;;18.70;99.90;;;;;;5094412;28;20419;-70
2023/10/12 13:27:37;;;;;;;1999.90;999.90;;;18.70;99.90;;;;;;5079276;28;20394;-69
2023/10/12 13:30:10;;;;;;;1999.90;999.90;;;18.70;99.90;;;;;;5090930;28;20407;-70
2023/10/12 13:32:36;;;;;;;1999.90;999.90;;;18.70;99.90;;;;;;5108171;28;20838;-70
2023/10/12 13:35:17;;;;;;;1999.90;999.90;;;18.70;99.90;;;;;;5109169;28;20418;-70
2023/10/12 13:37:44;;;;;;;1999.90;999.90;;;18.70;99.90;;;;;;5089329;28;20420;-71
2023/10/12 13:40:15;;;;;;;1999.90;999.90;;;18.70;99.90;;;;;;5097091;28;20993;-70
2023/10/12 13:42:41;;;;;;;1999.90;999.90;;;18.70;99.90;;;;;;5088291;28;20456;-73
2023/10/12 13:45:09;;;;;;;1999.90;999.90;;;18.70;99.90;;;;;;5095595;28;20421;-69
2023/10/12 13:47:35;;;;;;;1999.90;999.90;;;18.70;99.90;;;;;;5092964;28;20942;-69
2023/10/12 13:50:00;;;;;;;1999.90;999.90;;;18.70;99.90;;;;;;5098427;28;20433;-68
2023/10/12 13:52:26;;;;;;;1999.90;999.90;;;18.80;99.90;;;;;;5086042;28;20273;-69
2023/10/12 13:54:52;;;;;;;1999.90;999.90;;;18.80;99.90;;;;;;5087287;28;20184;-69
2023/10/12 13:57:18;;;;;;;1999.90;999.90;;;18.70;99.90;;;;;;5093250;28;20225;-69
2023/10/12 13:59:47;;;;;;;1999.90;999.90;;;18.70;99.90;;;;;;5087015;28;20416;-69
2023/10/12 14:02:13;;;;;;;1999.90;999.90;;;18.60;99.90;;;;;;5094092;28;20250;-70
2023/10/12 14:04:40;;;;;;;1999.90;999.90;;;18.50;99.90;;;;;;5093045;28;20455;-68
2023/10/12 14:07:07;;;;;;;1999.90;999.90;;;18.60;99.90;;;;;;5101502;28;20258;-68
2023/10/12 14:09:33;;;;;;;1999.90;999.90;;;18.50;99.90;;;;;;5107609;28;20501;-70
2023/10/12 14:11:59;;;;;;;1999.90;999.90;;;18.60;99.90;;;;;;5108185;28;20542;-69
2023/10/12 14:14:24;;;;;;;1999.90;999.90;;;18.70;99.90;;;;;;5107129;28;20272;-70
2023/10/12 14:16:50;;;;;;;1999.90;999.90;;;18.70;99.90;;;;;;5107689;28;20926;-70
2023/10/12 14:19:22;;;;;;;1999.90;999.90;;;18.60;99.90;;;;;;5108245;28;20193;-70
2023/10/12 14:21:51;;;;;;;1999.90;999.90;;;18.60;99.90;;;;;;5088383;28;20446;-70
2023/10/12 14:24:17;;;;;;;1999.90;999.90;;;18.60;99.90;;;;;;5098989;28;20553;-71
2023/10/12 14:26:44;;;;;;;1999.90;999.90;;;18.60;99.90;;;;;;5101369;28;20495;-71
2023/10/12 14:29:10;;;;;;;1999.90;999.90;;;18.70;99.90;;;;;;5087930;28;20208;-69
2023/10/12 14:31:36;;;;;;;1999.90;999.90;;;18.50;99.90;;;;;;5095305;28;20468;-69
2023/10/12 14:34:02;;;;;;;1999.90;999.90;;;18.50;99.90;;;;;;5091405;28;20190;-70
2023/10/12 14:36:28;;;;;;;1999.90;999.90;;;18.40;99.90;;;;;;5100544;28;20266;-70